Terminal Aerodrome Forecast
Issued by NWS Charleston, WV

Current Version | Previous Version | Text Only | Print | Product List | Glossary Off
Versions: 1 2 3 4 5 6 7 8 9 10 11 12 13 14 15 16 17 18 19 20 21 22 23 24 25

000
FTUS41 KRLX 271000 AAB
TAFBKW
TAF AMD
KBKW 271055Z 2711/2806 22007KT P6SM SCT008 BKN015
      TEMPO 2711/2713 -SHRA BKN008
     FM271300 22006KT P6SM BKN025
     FM271500 23010KT P6SM VCTS SCT040CB BKN100
     FM271900 24012G20KT 5SM TSRA BKN035CB
     FM280000 25010KT P6SM BKN040
     FM280400 28008KT P6SM BKN035=

USA.gov is the U.S. government's official web portal to all federal, state and local government web resources and services.